RYR5BC LIBD-LICJ
Flight info
| Callsign | RYR5BC |
|---|---|
| Flight time | N/A |
| Altitude | 35000 |
| Route | TOPNO DCT BUMOK DCT KUTID DCT AMANO M742 ROSAS |
| Aircraft | B738/M-SDE3FGILRWY/SB1 |
Departure
| Time | 2026-05-06 12:43 |
|---|---|
| Airport | Bari Karol Wojtyła International Airport (LIBD) |
Arrival
| Time | N/A |
|---|---|
| Airport | Falcone–Borsellino Airport (LICJ) |
| Time | Latitude | Longitude | Altitude | Speed | Heading |
|---|---|---|---|---|---|
| 2026-05-06 12:33 | 41.13550 | 16.76396 | 150 ft | 0 kts | 160° |
| 2026-05-06 12:37 | 41.13564 | 16.76389 | 148 ft | 2 kts | 160° |
| 2026-05-06 12:37 | 41.13580 | 16.76382 | 147 ft | 2 kts | 161° |
| 2026-05-06 12:38 | 41.13596 | 16.76376 | 147 ft | 2 kts | 167° |
| 2026-05-06 12:38 | 41.13607 | 16.76366 | 147 ft | 2 kts | 77° |
| 2026-05-06 12:38 | 41.13606 | 16.76361 | 147 ft | 0 kts | 64° |
| 2026-05-06 12:39 | 41.13606 | 16.76362 | 147 ft | 0 kts | 64° |
| 2026-05-06 12:40 | 41.13614 | 16.76386 | 146 ft | 8 kts | 70° |
| 2026-05-06 12:40 | 41.13625 | 16.76510 | 142 ft | 19 kts | 94° |
| 2026-05-06 12:40 | 41.13600 | 16.76637 | 142 ft | 0 kts | 115° |
| 2026-05-06 12:40 | 41.13606 | 16.76621 | 142 ft | 8 kts | 112° |
| 2026-05-06 12:41 | 41.13608 | 16.76613 | 142 ft | 4 kts | 44° |
| 2026-05-06 12:41 | 41.13669 | 16.76669 | 138 ft | 17 kts | 30° |
| 2026-05-06 12:41 | 41.13812 | 16.76756 | 132 ft | 27 kts | 14° |
| 2026-05-06 12:41 | 41.13971 | 16.76756 | 133 ft | 20 kts | 306° |
| 2026-05-06 12:42 | 41.13994 | 16.76574 | 135 ft | 30 kts | 255° |
| 2026-05-06 12:42 | 41.13834 | 16.76014 | 155 ft | 99 kts | 248° |
| 2026-05-06 12:42 | 41.13526 | 16.74902 | 200 ft | 155 kts | 248° |
| 2026-05-06 12:42 | 41.13133 | 16.73473 | 657 ft | 174 kts | 247° |
| 2026-05-06 12:43 | 41.12716 | 16.71962 | 1605 ft | 162 kts | 245° |
| 2026-05-06 12:43 | 41.12323 | 16.70588 | 2573 ft | 161 kts | 247° |
| 2026-05-06 12:43 | 41.11884 | 16.69074 | 3003 ft | 193 kts | 248° |
| 2026-05-06 12:43 | 41.11369 | 16.67304 | 3293 ft | 218 kts | 248° |
| 2026-05-06 12:44 | 41.10808 | 16.65341 | 3627 ft | 236 kts | 248° |
| 2026-05-06 12:44 | 41.10197 | 16.63201 | 3981 ft | 256 kts | 248° |
| 2026-05-06 12:44 | 41.09563 | 16.60969 | 4875 ft | 257 kts | 248° |
| 2026-05-06 12:44 | 41.08930 | 16.58738 | 5729 ft | 259 kts | 248° |
| 2026-05-06 12:45 | 41.08292 | 16.56498 | 6581 ft | 261 kts | 248° |
| 2026-05-06 12:45 | 41.07648 | 16.54243 | 7411 ft | 262 kts | 248° |
| 2026-05-06 12:45 | 41.06347 | 16.49687 | 9087 ft | 267 kts | 249° |
| 2026-05-06 12:46 | 41.05688 | 16.47376 | 9899 ft | 269 kts | 249° |
| 2026-05-06 12:46 | 41.05017 | 16.45023 | 10466 ft | 281 kts | 249° |
| 2026-05-06 12:46 | 41.04305 | 16.42528 | 10631 ft | 305 kts | 249° |
| 2026-05-06 12:46 | 41.03531 | 16.39817 | 10965 ft | 322 kts | 249° |
| 2026-05-06 12:47 | 41.02728 | 16.37010 | 11597 ft | 328 kts | 249° |
| 2026-05-06 12:47 | 41.01916 | 16.34171 | 12354 ft | 330 kts | 249° |
| 2026-05-06 12:47 | 41.01098 | 16.31312 | 13106 ft | 334 kts | 249° |
| 2026-05-06 12:47 | 41.00270 | 16.28423 | 13872 ft | 337 kts | 249° |
| 2026-05-06 12:48 | 40.99430 | 16.25496 | 14556 ft | 341 kts | 249° |
| 2026-05-06 12:48 | 40.98585 | 16.22555 | 15301 ft | 343 kts | 249° |
| 2026-05-06 12:48 | 40.97743 | 16.19622 | 16053 ft | 345 kts | 249° |
| 2026-05-06 12:48 | 40.96883 | 16.16636 | 16766 ft | 349 kts | 249° |
| 2026-05-06 12:49 | 40.96012 | 16.13617 | 17467 ft | 353 kts | 249° |
| 2026-05-06 12:49 | 40.95084 | 16.10594 | 18147 ft | 357 kts | 243° |
| 2026-05-06 12:49 | 40.93722 | 16.07829 | 18782 ft | 360 kts | 235° |
| 2026-05-06 12:49 | 40.92245 | 16.05138 | 19419 ft | 363 kts | 235° |
| 2026-05-06 12:50 | 40.90747 | 16.02439 | 20067 ft | 365 kts | 235° |
| 2026-05-06 12:50 | 40.89241 | 15.99716 | 20693 ft | 368 kts | 235° |
| 2026-05-06 12:50 | 40.87731 | 15.96965 | 21295 ft | 370 kts | 235° |
| 2026-05-06 12:50 | 40.86218 | 15.94195 | 21886 ft | 373 kts | 235° |
| 2026-05-06 12:51 | 40.84694 | 15.91396 | 22474 ft | 375 kts | 236° |
| 2026-05-06 12:51 | 40.83184 | 15.88619 | 23042 ft | 378 kts | 236° |
| 2026-05-06 12:51 | 40.81649 | 15.85795 | 23604 ft | 380 kts | 236° |
| 2026-05-06 12:51 | 40.80098 | 15.82944 | 24141 ft | 381 kts | 236° |
| 2026-05-06 12:52 | 40.79279 | 15.81440 | 24463 ft | 379 kts | 236° |
| 2026-05-06 12:52 | 40.78753 | 15.80477 | 24691 ft | 378 kts | 236° |
| 2026-05-06 12:52 | 40.77522 | 15.78269 | 25201 ft | 376 kts | 235° |
| 2026-05-06 12:52 | 40.75993 | 15.75476 | 25806 ft | 375 kts | 236° |
| 2026-05-06 12:53 | 40.74486 | 15.72676 | 26391 ft | 373 kts | 236° |
| 2026-05-06 12:53 | 40.73489 | 15.70833 | 26809 ft | 372 kts | 236° |
| 2026-05-06 12:53 | 40.72880 | 15.69714 | 27066 ft | 371 kts | 236° |
| 2026-05-06 12:53 | 40.72200 | 15.68475 | 27351 ft | 370 kts | 236° |
| 2026-05-06 12:54 | 40.70678 | 15.65788 | 27928 ft | 369 kts | 234° |
| 2026-05-06 12:54 | 40.69047 | 15.63157 | 28491 ft | 370 kts | 232° |
| 2026-05-06 12:54 | 40.67882 | 15.61345 | 28914 ft | 369 kts | 232° |
| 2026-05-06 12:54 | 40.66218 | 15.58785 | 29538 ft | 366 kts | 232° |
| 2026-05-06 12:55 | 40.64561 | 15.56237 | 30014 ft | 367 kts | 232° |
| 2026-05-06 12:55 | 40.61251 | 15.51110 | 29997 ft | 368 kts | 232° |
| 2026-05-06 12:56 | 40.57963 | 15.45995 | 30011 ft | 364 kts | 232° |
| 2026-05-06 12:56 | 40.54716 | 15.40937 | 30007 ft | 364 kts | 233° |
| 2026-05-06 12:57 | 40.51443 | 15.35845 | 30003 ft | 364 kts | 232° |
| 2026-05-06 12:57 | 40.48166 | 15.30757 | 30026 ft | 365 kts | 232° |
| 2026-05-06 12:58 | 40.44879 | 15.25657 | 30022 ft | 366 kts | 233° |
| 2026-05-06 12:58 | 40.41598 | 15.20588 | 30019 ft | 366 kts | 232° |
| 2026-05-06 12:59 | 40.38198 | 15.15610 | 30027 ft | 366 kts | 231° |
| 2026-05-06 12:59 | 40.34755 | 15.10674 | 30027 ft | 366 kts | 231° |
| 2026-05-06 13:00 | 40.31341 | 15.05769 | 30009 ft | 365 kts | 231° |
| 2026-05-06 13:00 | 40.27919 | 15.00843 | 30018 ft | 365 kts | 231° |
| 2026-05-06 13:01 | 40.24496 | 14.95916 | 30010 ft | 364 kts | 231° |
| 2026-05-06 13:01 | 40.21662 | 14.91839 | 30006 ft | 364 kts | 231° |
| 2026-05-06 13:02 | 40.18282 | 14.86986 | 30016 ft | 362 kts | 231° |
| 2026-05-06 13:02 | 40.14891 | 14.82124 | 30015 ft | 362 kts | 231° |
| 2026-05-06 13:03 | 40.11498 | 14.77265 | 30012 ft | 362 kts | 231° |
| 2026-05-06 13:03 | 40.10023 | 14.75156 | 30017 ft | 362 kts | 231° |
| 2026-05-06 13:04 | 40.08524 | 14.73016 | 30024 ft | 362 kts | 231° |
| 2026-05-06 13:04 | 40.05874 | 14.69053 | 30011 ft | 362 kts | 232° |
| 2026-05-06 13:05 | 40.02903 | 14.64867 | 30014 ft | 363 kts | 231° |
| 2026-05-06 13:05 | 39.99458 | 14.60041 | 30011 ft | 364 kts | 231° |
| 2026-05-06 13:06 | 39.96023 | 14.55195 | 30005 ft | 364 kts | 231° |
| 2026-05-06 13:06 | 39.92594 | 14.50339 | 30008 ft | 364 kts | 231° |
| 2026-05-06 13:07 | 39.89159 | 14.45475 | 30009 ft | 364 kts | 231° |
| 2026-05-06 13:07 | 39.85746 | 14.40647 | 30007 ft | 364 kts | 231° |
| 2026-05-06 13:08 | 39.82325 | 14.35819 | 29987 ft | 356 kts | 231° |
| 2026-05-06 13:08 | 39.79014 | 14.31154 | 29998 ft | 348 kts | 231° |
| 2026-05-06 13:09 | 39.75726 | 14.26521 | 29750 ft | 350 kts | 231° |
| 2026-05-06 13:09 | 39.74110 | 14.24247 | 29507 ft | 343 kts | 231° |
| 2026-05-06 13:09 | 39.72495 | 14.21978 | 29165 ft | 339 kts | 230° |
| 2026-05-06 13:09 | 39.70898 | 14.19738 | 28777 ft | 336 kts | 230° |
| 2026-05-06 13:10 | 39.69321 | 14.17524 | 28421 ft | 333 kts | 230° |
| 2026-05-06 13:10 | 39.67755 | 14.15328 | 28054 ft | 330 kts | 230° |
| 2026-05-06 13:10 | 39.66202 | 14.13151 | 27696 ft | 327 kts | 230° |
| 2026-05-06 13:10 | 39.64661 | 14.10992 | 27337 ft | 325 kts | 230° |
| 2026-05-06 13:11 | 39.63132 | 14.08852 | 26986 ft | 322 kts | 230° |
| 2026-05-06 13:11 | 39.61612 | 14.06727 | 26638 ft | 320 kts | 230° |
| 2026-05-06 13:11 | 39.60102 | 14.04616 | 26292 ft | 318 kts | 229° |
| 2026-05-06 13:11 | 39.58601 | 14.02520 | 25950 ft | 316 kts | 229° |
| 2026-05-06 13:12 | 39.57108 | 14.00435 | 25608 ft | 315 kts | 229° |
| 2026-05-06 13:12 | 39.55624 | 13.98365 | 25267 ft | 313 kts | 229° |
| 2026-05-06 13:12 | 39.54143 | 13.96301 | 24927 ft | 312 kts | 229° |
| 2026-05-06 13:12 | 39.52671 | 13.94250 | 24589 ft | 311 kts | 229° |
| 2026-05-06 13:13 | 39.51200 | 13.92202 | 24253 ft | 310 kts | 229° |
| 2026-05-06 13:13 | 39.49736 | 13.90165 | 23917 ft | 309 kts | 229° |
| 2026-05-06 13:13 | 39.48274 | 13.88131 | 23563 ft | 309 kts | 229° |
| 2026-05-06 13:13 | 39.46814 | 13.86103 | 23183 ft | 307 kts | 229° |
| 2026-05-06 13:14 | 39.45357 | 13.84082 | 22821 ft | 306 kts | 228° |
| 2026-05-06 13:14 | 39.43911 | 13.82081 | 22478 ft | 304 kts | 227° |
| 2026-05-06 13:14 | 39.42291 | 13.80334 | 22164 ft | 303 kts | 217° |
| 2026-05-06 13:14 | 39.40484 | 13.78948 | 21859 ft | 302 kts | 208° |
| 2026-05-06 13:15 | 39.38528 | 13.77949 | 21540 ft | 302 kts | 203° |
| 2026-05-06 13:15 | 39.36553 | 13.77051 | 21217 ft | 300 kts | 202° |
| 2026-05-06 13:15 | 39.34586 | 13.76178 | 20906 ft | 298 kts | 202° |
| 2026-05-06 13:15 | 39.32654 | 13.75319 | 20585 ft | 297 kts | 202° |
| 2026-05-06 13:16 | 39.30705 | 13.74450 | 20280 ft | 295 kts | 202° |
| 2026-05-06 13:16 | 39.28766 | 13.73579 | 19969 ft | 294 kts | 202° |
| 2026-05-06 13:16 | 39.26832 | 13.72708 | 19657 ft | 292 kts | 202° |
| 2026-05-06 13:16 | 39.24913 | 13.71842 | 19351 ft | 291 kts | 202° |
| 2026-05-06 13:17 | 39.23002 | 13.70979 | 19041 ft | 290 kts | 202° |
| 2026-05-06 13:17 | 39.21121 | 13.70128 | 18739 ft | 289 kts | 202° |
| 2026-05-06 13:17 | 39.19219 | 13.69268 | 18429 ft | 289 kts | 202° |
| 2026-05-06 13:17 | 39.17327 | 13.68412 | 18100 ft | 288 kts | 202° |
| 2026-05-06 13:18 | 39.15438 | 13.67558 | 17756 ft | 287 kts | 202° |
| 2026-05-06 13:18 | 39.13558 | 13.66709 | 17434 ft | 286 kts | 202° |
| 2026-05-06 13:18 | 39.11687 | 13.65864 | 17119 ft | 284 kts | 202° |
| 2026-05-06 13:18 | 39.09830 | 13.65025 | 16812 ft | 282 kts | 202° |
| 2026-05-06 13:19 | 39.07981 | 13.64191 | 16514 ft | 281 kts | 202° |
| 2026-05-06 13:19 | 39.06143 | 13.63362 | 16220 ft | 279 kts | 202° |
| 2026-05-06 13:19 | 39.04316 | 13.62538 | 15913 ft | 277 kts | 202° |
| 2026-05-06 13:19 | 39.02498 | 13.61719 | 15617 ft | 276 kts | 202° |
| 2026-05-06 13:20 | 39.00688 | 13.60904 | 15322 ft | 275 kts | 202° |
| 2026-05-06 13:20 | 38.98887 | 13.60093 | 15025 ft | 274 kts | 201° |
| 2026-05-06 13:20 | 38.97091 | 13.59285 | 14724 ft | 273 kts | 201° |
| 2026-05-06 13:20 | 38.95300 | 13.58480 | 14442 ft | 272 kts | 201° |
| 2026-05-06 13:21 | 38.93516 | 13.57678 | 14152 ft | 271 kts | 201° |
| 2026-05-06 13:21 | 38.91753 | 13.56886 | 13861 ft | 271 kts | 201° |
| 2026-05-06 13:21 | 38.89972 | 13.56086 | 13536 ft | 271 kts | 201° |
| 2026-05-06 13:21 | 38.88198 | 13.55290 | 13216 ft | 270 kts | 201° |
| 2026-05-06 13:22 | 38.86428 | 13.54497 | 12902 ft | 269 kts | 201° |
| 2026-05-06 13:22 | 38.84657 | 13.53744 | 12604 ft | 268 kts | 197° |
| 2026-05-06 13:22 | 38.82831 | 13.53245 | 12287 ft | 268 kts | 192° |
| 2026-05-06 13:22 | 38.80988 | 13.52845 | 11978 ft | 268 kts | 191° |
| 2026-05-06 13:23 | 38.79146 | 13.52460 | 11682 ft | 267 kts | 191° |
| 2026-05-06 13:23 | 38.77339 | 13.52080 | 11390 ft | 266 kts | 191° |
| 2026-05-06 13:23 | 38.75516 | 13.51689 | 11099 ft | 265 kts | 191° |
| 2026-05-06 13:23 | 38.73697 | 13.51293 | 10808 ft | 265 kts | 191° |
| 2026-05-06 13:24 | 38.71880 | 13.50893 | 10517 ft | 264 kts | 191° |
| 2026-05-06 13:24 | 38.70065 | 13.50490 | 10215 ft | 264 kts | 191° |
| 2026-05-06 13:24 | 38.68273 | 13.50091 | 10073 ft | 258 kts | 191° |
| 2026-05-06 13:24 | 38.66520 | 13.49699 | 9837 ft | 256 kts | 191° |
| 2026-05-06 13:25 | 38.64764 | 13.49305 | 9552 ft | 255 kts | 191° |
| 2026-05-06 13:25 | 38.63021 | 13.48914 | 9269 ft | 254 kts | 191° |
| 2026-05-06 13:25 | 38.61303 | 13.48529 | 8992 ft | 253 kts | 191° |
| 2026-05-06 13:25 | 38.59572 | 13.48140 | 8716 ft | 252 kts | 191° |
| 2026-05-06 13:26 | 38.57848 | 13.47753 | 8443 ft | 251 kts | 191° |
| 2026-05-06 13:26 | 38.56131 | 13.47367 | 8172 ft | 250 kts | 190° |
| 2026-05-06 13:26 | 38.54421 | 13.46983 | 7904 ft | 249 kts | 190° |
| 2026-05-06 13:26 | 38.52713 | 13.46600 | 7635 ft | 249 kts | 190° |
| 2026-05-06 13:27 | 38.51010 | 13.46218 | 7370 ft | 248 kts | 190° |
| 2026-05-06 13:27 | 38.49311 | 13.45837 | 7101 ft | 248 kts | 190° |
| 2026-05-06 13:27 | 38.47618 | 13.45457 | 6843 ft | 247 kts | 190° |
| 2026-05-06 13:27 | 38.45926 | 13.45078 | 6567 ft | 247 kts | 190° |
| 2026-05-06 13:28 | 38.44234 | 13.44699 | 6295 ft | 247 kts | 190° |
| 2026-05-06 13:28 | 38.42541 | 13.44320 | 6007 ft | 247 kts | 190° |
| 2026-05-06 13:28 | 38.40851 | 13.43942 | 5721 ft | 246 kts | 190° |
| 2026-05-06 13:28 | 38.39162 | 13.43564 | 5442 ft | 246 kts | 190° |
| 2026-05-06 13:29 | 38.37485 | 13.43189 | 5242 ft | 242 kts | 190° |
| 2026-05-06 13:29 | 38.35856 | 13.42825 | 5122 ft | 234 kts | 190° |
| 2026-05-06 13:29 | 38.34271 | 13.42471 | 5005 ft | 227 kts | 190° |
| 2026-05-06 13:29 | 38.32735 | 13.42128 | 4909 ft | 219 kts | 190° |
| 2026-05-06 13:30 | 38.31258 | 13.41798 | 4817 ft | 212 kts | 190° |
| 2026-05-06 13:30 | 38.29821 | 13.41475 | 4715 ft | 209 kts | 192° |
| 2026-05-06 13:30 | 38.28559 | 13.40631 | 4490 ft | 213 kts | 229° |
| 2026-05-06 13:30 | 38.27777 | 13.39017 | 4308 ft | 218 kts | 237° |
| 2026-05-06 13:31 | 38.27045 | 13.37308 | 4047 ft | 220 kts | 242° |
| 2026-05-06 13:31 | 38.26410 | 13.35530 | 3800 ft | 221 kts | 244° |
| 2026-05-06 13:31 | 38.25811 | 13.33737 | 3557 ft | 220 kts | 244° |
| 2026-05-06 13:31 | 38.25223 | 13.31967 | 3380 ft | 213 kts | 244° |
| 2026-05-06 13:32 | 38.24649 | 13.30251 | 3115 ft | 208 kts | 244° |
| 2026-05-06 13:32 | 38.24089 | 13.28575 | 2840 ft | 203 kts | 244° |
| 2026-05-06 13:32 | 38.23552 | 13.26970 | 2572 ft | 195 kts | 244° |
| 2026-05-06 13:32 | 38.23031 | 13.25410 | 2318 ft | 186 kts | 245° |
| 2026-05-06 13:33 | 38.22545 | 13.23954 | 2077 ft | 172 kts | 244° |
| 2026-05-06 13:33 | 38.22102 | 13.22625 | 1894 ft | 155 kts | 245° |
| 2026-05-06 13:33 | 38.21692 | 13.21399 | 1688 ft | 149 kts | 244° |
| 2026-05-06 13:33 | 38.21287 | 13.20187 | 1474 ft | 150 kts | 245° |
| 2026-05-06 13:34 | 38.20878 | 13.18964 | 1278 ft | 150 kts | 245° |
| 2026-05-06 13:34 | 38.20469 | 13.17739 | 1075 ft | 151 kts | 246° |
| 2026-05-06 13:34 | 38.20056 | 13.16499 | 868 ft | 157 kts | 248° |
| 2026-05-06 13:34 | 38.19627 | 13.15208 | 668 ft | 157 kts | 248° |
| 2026-05-06 13:35 | 38.19204 | 13.13936 | 454 ft | 156 kts | 248° |
| 2026-05-06 13:35 | 38.18776 | 13.12661 | 241 ft | 160 kts | 248° |
| 2026-05-06 13:35 | 38.18368 | 13.11437 | 54 ft | 153 kts | 248° |
| 2026-05-06 13:35 | 38.18022 | 13.10411 | 47 ft | 95 kts | 246° |
| 2026-05-06 13:36 | 38.17821 | 13.09828 | 45 ft | 59 kts | 247° |
| 2026-05-06 13:36 | 38.17668 | 13.09369 | 45 ft | 54 kts | 247° |